sensor_id;sensor_type;location;lat;lon;timestamp;temperature;humidity
12843;DHT22;35724;49.324;-123.118;2023-03-01T00:03:22;28.20;34.30
12843;DHT22;35724;49.324;-123.118;2023-03-01T00:14:48;28.20;34.20
12843;DHT22;35724;49.324;-123.118;2023-03-01T00:25:08;28.00;32.60
12843;DHT22;35724;49.324;-123.118;2023-03-01T00:35:39;27.90;31.60
12843;DHT22;35724;49.324;-123.118;2023-03-01T01:41:30;27.10;31.20
12843;DHT22;35724;49.324;-123.118;2023-03-01T01:51:40;26.90;30.20
12843;DHT22;35724;49.324;-123.118;2023-03-01T02:01:58;26.70;31.40
12843;DHT22;35724;49.324;-123.118;2023-03-01T02:23:59;26.90;33.90
12843;DHT22;35724;49.324;-123.118;2023-03-01T02:34:21;26.90;33.40
12843;DHT22;35724;49.324;-123.118;2023-03-01T02:44:30;27.00;34.80
12843;DHT22;35724;49.324;-123.118;2023-03-01T02:54:43;27.00;37.40
12843;DHT22;35724;49.324;-123.118;2023-03-01T03:04:57;27.00;35.70
12843;DHT22;35724;49.324;-123.118;2023-03-01T03:15:09;27.10;36.30
12843;DHT22;35724;49.324;-123.118;2023-03-01T03:25:35;27.10;35.90
12843;DHT22;35724;49.324;-123.118;2023-03-01T03:35:47;27.20;35.50
12843;DHT22;35724;49.324;-123.118;2023-03-01T03:45:56;27.20;35.50
12843;DHT22;35724;49.324;-123.118;2023-03-01T03:56:07;27.20;35.70
12843;DHT22;35724;49.324;-123.118;2023-03-01T04:06:15;27.20;35.80
12843;DHT22;35724;49.324;-123.118;2023-03-01T04:16:25;27.10;37.30
12843;DHT22;35724;49.324;-123.118;2023-03-01T04:26:33;27.10;39.20
12843;DHT22;35724;49.324;-123.118;2023-03-01T04:36:43;27.30;42.10
12843;DHT22;35724;49.324;-123.118;2023-03-01T04:46:51;27.40;42.00
12843;DHT22;35724;49.324;-123.118;2023-03-01T04:57:06;27.50;41.60
12843;DHT22;35724;49.324;-123.118;2023-03-01T05:07:19;27.60;41.50
12843;DHT22;35724;49.324;-123.118;2023-03-01T05:17:32;27.70;42.20
12843;DHT22;35724;49.324;-123.118;2023-03-01T05:27:44;27.80;42.00
12843;DHT22;35724;49.324;-123.118;2023-03-01T05:37:58;27.90;41.90
12843;DHT22;35724;49.324;-123.118;2023-03-01T05:48:12;27.90;41.50
12843;DHT22;35724;49.324;-123.118;2023-03-01T06:09:55;28.10;41.00
12843;DHT22;35724;49.324;-123.118;2023-03-01T06:20:04;28.20;40.90
12843;DHT22;35724;49.324;-123.118;2023-03-01T06:30:15;28.20;40.70
12843;DHT22;35724;49.324;-123.118;2023-03-01T06:40:31;28.30;40.80
12843;DHT22;35724;49.324;-123.118;2023-03-01T06:50:41;28.40;40.60
12843;DHT22;35724;49.324;-123.118;2023-03-01T07:00:49;28.40;40.00
12843;DHT22;35724;49.324;-123.118;2023-03-01T07:10:58;28.30;36.90
12843;DHT22;35724;49.324;-123.118;2023-03-01T07:21:07;28.20;36.70
12843;DHT22;35724;49.324;-123.118;2023-03-01T07:31:16;28.20;36.80
12843;DHT22;35724;49.324;-123.118;2023-03-01T07:41:24;28.20;37.00
12843;DHT22;35724;49.324;-123.118;2023-03-01T07:51:32;28.30;37.10
12843;DHT22;35724;49.324;-123.118;2023-03-01T08:01:40;28.30;37.10
12843;DHT22;35724;49.324;-123.118;2023-03-01T08:11:49;28.30;37.10
12843;DHT22;35724;49.324;-123.118;2023-03-01T08:21:57;28.30;37.00
12843;DHT22;35724;49.324;-123.118;2023-03-01T08:32:08;28.40;37.00
12843;DHT22;35724;49.324;-123.118;2023-03-01T08:42:16;28.40;36.90
12843;DHT22;35724;49.324;-123.118;2023-03-01T08:52:26;28.40;36.80
12843;DHT22;35724;49.324;-123.118;2023-03-01T09:02:35;28.50;36.80
12843;DHT22;35724;49.324;-123.118;2023-03-01T09:12:47;28.50;36.70
12843;DHT22;35724;49.324;-123.118;2023-03-01T09:22:55;28.50;36.70
12843;DHT22;35724;49.324;-123.118;2023-03-01T09:33:06;28.50;36.60
12843;DHT22;35724;49.324;-123.118;2023-03-01T09:43:23;28.60;36.60
12843;DHT22;35724;49.324;-123.118;2023-03-01T09:53:34;28.60;36.50
12843;DHT22;35724;49.324;-123.118;2023-03-01T10:03:48;28.60;36.40
12843;DHT22;35724;49.324;-123.118;2023-03-01T10:14:15;28.60;36.30
12843;DHT22;35724;49.324;-123.118;2023-03-01T10:24:27;28.60;36.30
12843;DHT22;35724;49.324;-123.118;2023-03-01T10:34:43;28.70;36.20
12843;DHT22;35724;49.324;-123.118;2023-03-01T10:44:50;28.70;36.20
12843;DHT22;35724;49.324;-123.118;2023-03-01T10:55:01;28.70;36.10
12843;DHT22;35724;49.324;-123.118;2023-03-01T11:05:19;28.70;36.00
12843;DHT22;35724;49.324;-123.118;2023-03-01T11:15:29;28.70;35.90
12843;DHT22;35724;49.324;-123.118;2023-03-01T11:25:40;28.80;35.80
12843;DHT22;35724;49.324;-123.118;2023-03-01T11:35:57;28.80;35.70
12843;DHT22;35724;49.324;-123.118;2023-03-01T11:57:13;28.80;35.40
12843;DHT22;35724;49.324;-123.118;2023-03-01T12:07:41;28.80;35.30
12843;DHT22;35724;49.324;-123.118;2023-03-01T12:18:05;28.80;35.10
12843;DHT22;35724;49.324;-123.118;2023-03-01T12:28:32;28.80;35.10
12843;DHT22;35724;49.324;-123.118;2023-03-01T12:38:48;28.80;35.00
12843;DHT22;35724;49.324;-123.118;2023-03-01T12:49:04;28.80;35.00
12843;DHT22;35724;49.324;-123.118;2023-03-01T12:59:25;28.90;34.90
12843;DHT22;35724;49.324;-123.118;2023-03-01T13:09:39;28.90;34.80
12843;DHT22;35724;49.324;-123.118;2023-03-01T13:20:11;28.90;34.80
12843;DHT22;35724;49.324;-123.118;2023-03-01T13:30:43;28.90;35.40
12843;DHT22;35724;49.324;-123.118;2023-03-01T13:41:02;28.90;34.60
12843;DHT22;35724;49.324;-123.118;2023-03-01T13:51:14;28.90;34.60
12843;DHT22;35724;49.324;-123.118;2023-03-01T14:01:29;28.90;34.60
12843;DHT22;35724;49.324;-123.118;2023-03-01T14:12:06;28.90;34.40
12843;DHT22;35724;49.324;-123.118;2023-03-01T14:22:26;28.90;34.30
12843;DHT22;35724;49.324;-123.118;2023-03-01T14:32:35;28.90;34.30
12843;DHT22;35724;49.324;-123.118;2023-03-01T14:42:46;28.90;34.30
12843;DHT22;35724;49.324;-123.118;2023-03-01T14:52:55;28.90;34.20
12843;DHT22;35724;49.324;-123.118;2023-03-01T15:03:13;28.90;34.10
12843;DHT22;35724;49.324;-123.118;2023-03-01T15:13:23;28.90;34.10
12843;DHT22;35724;49.324;-123.118;2023-03-01T15:23:41;28.90;34.40
12843;DHT22;35724;49.324;-123.118;2023-03-01T15:45:21;28.80;34.70
12843;DHT22;35724;49.324;-123.118;2023-03-01T16:07:53;28.70;34.50
12843;DHT22;35724;49.324;-123.118;2023-03-01T16:18:39;28.70;34.00
12843;DHT22;35724;49.324;-123.118;2023-03-01T16:41:05;28.70;34.60
12843;DHT22;35724;49.324;-123.118;2023-03-01T16:51:20;28.70;34.60
12843;DHT22;35724;49.324;-123.118;2023-03-01T19:31:31;29.50;38.10
12843;DHT22;35724;49.324;-123.118;2023-03-01T21:05:45;28.30;33.20
12843;DHT22;35724;49.324;-123.118;2023-03-01T21:28:22;28.30;32.50
12843;DHT22;35724;49.324;-123.118;2023-03-01T21:38:32;28.30;30.90
12843;DHT22;35724;49.324;-123.118;2023-03-01T21:49:18;28.10;30.00
12843;DHT22;35724;49.324;-123.118;2023-03-01T22:12:46;27.70;31.00
12843;DHT22;35724;49.324;-123.118;2023-03-01T22:22:53;27.60;31.30
12843;DHT22;35724;49.324;-123.118;2023-03-01T22:33:03;27.30;33.00
12843;DHT22;35724;49.324;-123.118;2023-03-01T22:43:11;27.10;33.60
12843;DHT22;35724;49.324;-123.118;2023-03-01T22:53:23;26.80;33.50
12843;DHT22;35724;49.324;-123.118;2023-03-01T23:14:53;26.90;34.80
12843;DHT22;35724;49.324;-123.118;2023-03-01T23:25:00;27.00;37.30
12843;DHT22;35724;49.324;-123.118;2023-03-01T23:36:04;27.20;37.40
